Terminal Aerodrome Forecast
Issued by NWS

Home | Current Version | Previous Version | Text Only | Print | Product List | Glossary On
Versions: 1 2 3 4 5 6 7 8 9 10 11 12
232
FTUS44 KEPZ 171737
TAFDMN
TAF
KDMN 171737Z 1718/1818 30007KT P6SM -SHRA BKN040 OVC060
     FM172000 10007KT P6SM VCSH BKN040 OVC070
     FM180600 04007KT 5SM -RA BKN030 OVC050
     FM181400 VRB04KT P6SM VCSH BKN070=

USA.gov is the U.S. government's official web portal to all federal, state and local government web resources and services.